createdAt,value
2018-12-20T00:00:55.423Z,34.55
2018-12-20T00:15:54.320Z,41.85
2018-12-20T00:30:52.912Z,42.80
2018-12-20T00:45:51.944Z,43.78
2018-12-20T01:00:56.563Z,41.65
2018-12-20T01:15:51.958Z,37.42
2018-12-20T01:30:53.182Z,38.33
2018-12-20T01:45:50.982Z,40.73
2018-12-20T02:00:52.915Z,42.85
2018-12-20T02:15:51.561Z,41.85
2018-12-20T02:30:53.467Z,42.35
2018-12-20T02:45:51.615Z,39.70
2018-12-20T03:00:54.747Z,39.83
2018-12-20T03:15:52.434Z,36.10
2018-12-20T03:30:53.766Z,34.92
2018-12-20T03:45:54.827Z,33.80
2018-12-20T04:00:51.126Z,36.90
2018-12-20T04:15:52.964Z,39.88
2018-12-20T04:45:57.976Z,43.42
2018-12-20T05:00:51.608Z,41.05
2018-12-20T05:15:56.341Z,40.08
2018-12-20T05:30:51.446Z,46.80
2018-12-20T05:45:51.411Z,42.08
2018-12-20T06:00:53.401Z,44.03
2018-12-20T06:15:51.246Z,53.35
2018-12-20T06:30:50.670Z,49.60
2018-12-20T06:45:50.707Z,41.73
2018-12-20T07:00:51.524Z,39.58
2018-12-20T07:15:51.467Z,38.20
2018-12-20T07:30:53.269Z,57.17
2018-12-20T07:45:50.743Z,45.75
2018-12-20T08:00:50.620Z,60.40
2018-12-20T08:15:50.734Z,57.70
2018-12-20T08:30:51.083Z,54.38
2018-12-20T08:45:50.438Z,46.15
2018-12-20T09:00:50.909Z,45.08
2018-12-20T09:15:53.203Z,55.00
2018-12-20T09:30:53.166Z,52.90
2018-12-20T09:45:53.102Z,50.60
2018-12-20T10:00:51.050Z,47.03
2018-12-20T10:15:50.910Z,44.83
2018-12-20T10:30:51.781Z,47.25
2018-12-20T10:45:51.225Z,53.17
2018-12-20T11:00:56.363Z,51.75
2018-12-20T11:15:51.038Z,58.48
2018-12-20T11:30:51.001Z,60.60
2018-12-20T11:45:51.443Z,56.53
2018-12-20T12:00:51.340Z,61.48
2018-12-20T12:15:51.372Z,57.35
2018-12-20T12:30:50.720Z,61.05
2018-12-20T12:45:52.493Z,64.53
2018-12-20T13:00:50.470Z,63.35
2018-12-20T13:15:54.055Z,68.67
2018-12-20T13:30:51.348Z,68.87
2018-12-20T13:45:53.381Z,69.90
2018-12-20T14:00:52.750Z,81.08
2018-12-20T14:15:50.793Z,71.10
2018-12-20T14:30:51.064Z,74.82
2018-12-20T14:45:51.556Z,71.33
2018-12-20T15:00:51.266Z,70.03
2018-12-20T15:15:50.878Z,65.05
2018-12-20T15:30:51.321Z,65.50
2018-12-20T15:45:54.230Z,68.50
2018-12-20T16:00:52.436Z,73.85
2018-12-20T16:15:51.129Z,71.57
2018-12-20T16:30:53.742Z,71.53
2018-12-20T16:45:53.891Z,76.00
2018-12-20T17:45:53.521Z,84.13
2018-12-20T18:15:53.404Z,75.47
2018-12-20T18:30:54.502Z,80.38
2018-12-20T18:45:51.657Z,75.47
2018-12-20T19:15:55.748Z,72.50
2018-12-20T19:45:51.299Z,80.47
2018-12-20T20:00:57.683Z,78.25
2018-12-20T20:15:55.650Z,75.47
2018-12-20T20:30:52.237Z,62.53
2018-12-20T20:45:51.420Z,57.40
2018-12-20T21:00:57.052Z,58.85
2018-12-20T21:15:50.722Z,59.73
2018-12-20T21:30:50.789Z,60.92
2018-12-20T21:45:53.027Z,62.30
2018-12-20T22:00:59.162Z,60.70
2018-12-20T22:15:56.006Z,56.48
2018-12-20T22:30:51.211Z,52.78
2018-12-20T22:45:52.686Z,51.35
2018-12-20T23:00:56.284Z,49.60
2018-12-20T23:15:50.679Z,53.60
2018-12-20T23:30:50.971Z,53.45
2018-12-20T23:45:50.996Z,50.10
